createdAt,value
2019-04-20T00:01:40.846Z,96.00
2019-04-20T00:04:20.506Z,95.90
2019-04-20T00:06:48.378Z,96.10
2019-04-20T00:09:21.081Z,96.40
2019-04-20T00:12:01.518Z,96.20
2019-04-20T00:14:26.258Z,96.00
2019-04-20T00:16:54.687Z,95.80
2019-04-20T00:19:31.908Z,95.80
2019-04-20T00:22:07.916Z,95.80
2019-04-20T00:25:11.899Z,96.00
2019-04-20T00:28:16.520Z,96.10
2019-04-20T00:30:51.790Z,96.00
2019-04-20T00:33:14.868Z,95.70
2019-04-20T00:35:35.832Z,95.80
2019-04-20T00:38:07.729Z,95.50
2019-04-20T00:40:39.173Z,95.40
2019-04-20T00:43:14.140Z,95.30
2019-04-20T00:45:46.846Z,95.20
2019-04-20T00:48:22.543Z,95.40
2019-04-20T00:51:13.858Z,95.60
2019-04-20T00:53:31.410Z,96.00
2019-04-20T00:55:57.058Z,96.00
2019-04-20T00:58:35.228Z,95.90
2019-04-20T01:01:23.676Z,95.80
2019-04-20T01:03:47.315Z,95.60
2019-04-20T01:06:31.808Z,95.70
2019-04-20T01:08:53.015Z,95.40
2019-04-20T01:11:30.931Z,95.40
2019-04-20T01:14:02.171Z,95.40
2019-04-20T01:16:36.846Z,95.50
2019-04-20T01:19:00.072Z,95.40
2019-04-20T01:21:33.449Z,95.20
2019-04-20T01:24:07.025Z,95.30
2019-04-20T01:26:45.194Z,95.20
2019-04-20T01:29:20.207Z,95.70
2019-04-20T01:31:58.227Z,95.50
2019-04-20T01:34:26.985Z,95.70
2019-04-20T01:37:00.659Z,95.70
2019-04-20T01:39:27.646Z,95.50
2019-04-20T01:41:49.780Z,95.90
2019-04-20T01:44:26.101Z,95.80
2019-04-20T01:46:57.948Z,95.80
2019-04-20T01:49:28.633Z,95.70
2019-04-20T01:52:07.351Z,95.80
2019-04-20T01:54:48.202Z,96.00
2019-04-20T01:57:25.986Z,95.50
2019-04-20T02:00:14.427Z,95.80
2019-04-20T02:02:48.858Z,96.00
2019-04-20T02:05:22.864Z,96.00
2019-04-20T02:07:51.013Z,96.20
2019-04-20T02:10:31.119Z,96.30
2019-04-20T02:12:59.379Z,96.40
2019-04-20T02:15:32.974Z,96.50
2019-04-20T02:18:11.796Z,96.60
2019-04-20T02:20:48.961Z,96.20
2019-04-20T02:23:14.560Z,96.50
2019-04-20T02:25:35.685Z,96.40
2019-04-20T02:28:22.314Z,96.30
2019-04-20T02:31:17.915Z,96.20
2019-04-20T02:36:47.941Z,96.20
2019-04-20T02:39:23.907Z,96.10
2019-04-20T02:41:44.695Z,96.00
2019-04-20T02:44:19.307Z,96.00
2019-04-20T02:46:48.953Z,96.50
2019-04-20T02:56:58.823Z,97.00
2019-04-20T03:01:49.160Z,97.20
2019-04-20T03:04:04.334Z,97.10
2019-04-20T03:06:48.438Z,97.10
2019-04-20T03:09:27.247Z,97.10
2019-04-20T03:12:03.400Z,97.10
2019-04-20T03:14:29.270Z,97.10
2019-04-20T03:17:03.243Z,97.10
2019-04-20T03:19:30.326Z,96.70
2019-04-20T03:22:13.668Z,96.80
2019-04-20T03:24:50.035Z,96.90
2019-04-20T03:27:19.202Z,97.80
2019-04-20T03:30:39.874Z,97.80
2019-04-20T03:35:22.483Z,99.10
2019-04-20T03:37:52.512Z,99.30
2019-04-20T03:40:19.307Z,99.90
2019-04-20T03:42:37.073Z,99.90
2019-04-20T03:45:13.164Z,99.90
2019-04-20T03:47:52.811Z,99.90
2019-04-20T03:50:35.581Z,99.90
2019-04-20T03:53:13.942Z,99.90
2019-04-20T03:55:56.615Z,99.90
2019-04-20T03:58:47.227Z,99.90
2019-04-20T04:04:25.288Z,99.90
2019-04-20T04:06:46.390Z,99.90
2019-04-20T04:09:21.235Z,99.90
2019-04-20T04:11:56.002Z,99.90
2019-04-20T04:14:13.626Z,99.90
2019-04-20T04:16:49.752Z,99.90
2019-04-20T04:19:23.228Z,99.90
2019-04-20T04:22:06.098Z,99.90
2019-04-20T04:24:31.603Z,99.90
2019-04-20T04:27:05.666Z,99.90
2019-04-20T04:29:46.662Z,99.90
2019-04-20T04:32:37.546Z,99.90
2019-04-20T04:34:48.586Z,99.90
2019-04-20T04:37:24.119Z,99.90
2019-04-20T04:40:12.807Z,99.90
2019-04-20T04:42:27.654Z,99.90
2019-04-20T04:44:48.461Z,99.90
2019-04-20T04:47:13.411Z,99.90
2019-04-20T04:49:49.938Z,99.90
2019-04-20T04:52:27.124Z,99.90
2019-04-20T04:54:56.657Z,99.90
2019-04-20T04:57:22.237Z,99.90
2019-04-20T04:59:53.103Z,99.90
2019-04-20T05:02:29.690Z,99.90
2019-04-20T05:05:31.005Z,99.90
2019-04-20T05:07:52.130Z,99.90
2019-04-20T05:10:14.054Z,99.90
2019-04-20T05:12:46.064Z,99.90
2019-04-20T05:15:34.829Z,99.90
2019-04-20T05:18:11.896Z,99.90
2019-04-20T05:20:46.860Z,99.90
2019-04-20T05:23:29.504Z,99.90
2019-04-20T05:26:14.189Z,99.90
2019-04-20T05:28:36.850Z,99.90
2019-04-20T05:31:03.070Z,99.90
2019-04-20T05:33:58.285Z,99.90
2019-04-20T05:36:23.466Z,99.90
2019-04-20T05:39:02.725Z,99.90
2019-04-20T05:41:21.589Z,99.90
2019-04-20T05:43:59.482Z,99.90
2019-04-20T05:46:36.241Z,99.90
2019-04-20T05:49:10.035Z,99.90
2019-04-20T05:51:45.089Z,99.90
2019-04-20T05:54:15.560Z,99.90
2019-04-20T05:56:47.767Z,99.90
2019-04-20T05:59:17.612Z,99.90
2019-04-20T06:01:53.198Z,99.90
2019-04-20T06:04:28.179Z,99.90
2019-04-20T06:06:56.405Z,99.90
2019-04-20T06:09:28.010Z,99.90
2019-04-20T06:12:07.782Z,99.90
2019-04-20T06:14:36.756Z,99.90
2019-04-20T06:17:46.188Z,99.90
2019-04-20T06:20:07.788Z,99.90
2019-04-20T06:22:42.768Z,99.90
2019-04-20T06:27:51.199Z,99.90
2019-04-20T06:30:18.891Z,99.90
2019-04-20T06:34:18.218Z,99.90
2019-04-20T06:36:27.562Z,99.90
2019-04-20T06:39:02.381Z,99.90
2019-04-20T06:41:46.574Z,99.90
2019-04-20T06:44:06.506Z,99.90
2019-04-20T06:46:36.262Z,99.90
2019-04-20T06:49:10.129Z,99.90
2019-04-20T06:51:42.326Z,99.90
2019-04-20T06:54:12.443Z,99.90
2019-04-20T06:56:54.045Z,99.90
2019-04-20T06:59:36.029Z,99.90
2019-04-20T07:02:02.897Z,99.80
2019-04-20T07:04:49.978Z,99.30
2019-04-20T07:07:18.434Z,99.30
2019-04-20T07:09:48.050Z,99.70
2019-04-20T07:12:05.463Z,99.90
2019-04-20T07:14:35.788Z,99.90
2019-04-20T07:17:29.837Z,97.20
2019-04-20T07:19:50.129Z,96.70
2019-04-20T07:22:34.684Z,95.60
2019-04-20T07:25:12.838Z,94.70
2019-04-20T07:27:36.875Z,95.00
2019-04-20T07:30:12.054Z,94.80
2019-04-20T07:32:48.339Z,94.20
2019-04-20T07:35:14.482Z,92.60
2019-04-20T07:40:24.470Z,88.00
2019-04-20T07:42:57.650Z,86.40
2019-04-20T07:45:29.628Z,88.30
2019-04-20T07:48:07.815Z,88.70
2019-04-20T07:50:29.527Z,84.80
2019-04-20T07:53:07.175Z,83.00
2019-04-20T07:55:47.775Z,83.20
2019-04-20T07:58:07.696Z,78.50
2019-04-20T08:00:55.164Z,77.00
2019-04-20T08:03:42.602Z,77.20
2019-04-20T08:06:13.631Z,74.10
2019-04-20T08:08:54.706Z,75.10
2019-04-20T08:11:32.076Z,69.70
2019-04-20T08:14:05.668Z,71.00
2019-04-20T08:16:46.687Z,73.10
2019-04-20T08:18:59.692Z,73.80
2019-04-20T08:21:43.700Z,71.90
2019-04-20T08:24:07.037Z,71.70
2019-04-20T08:26:29.968Z,70.10
2019-04-20T08:29:14.881Z,70.30
2019-04-20T08:32:04.818Z,68.70
2019-04-20T08:34:41.686Z,68.00
2019-04-20T08:37:06.100Z,69.40
2019-04-20T08:39:52.160Z,66.00
2019-04-20T08:42:13.080Z,68.50
2019-04-20T08:47:32.372Z,68.10
2019-04-20T08:50:21.018Z,68.90
2019-04-20T08:55:19.837Z,69.90
2019-04-20T08:57:33.606Z,69.60
2019-04-20T09:00:06.868Z,68.30
2019-04-20T09:02:41.225Z,67.50
2019-04-20T09:05:24.889Z,66.30
2019-04-20T09:07:53.830Z,67.60
2019-04-20T09:10:37.977Z,69.30
2019-04-20T09:13:03.986Z,68.00
2019-04-20T09:15:23.376Z,66.90
2019-04-20T09:18:00.664Z,67.10
2019-04-20T09:20:42.124Z,67.70
2019-04-20T09:23:21.757Z,67.10
2019-04-20T09:26:02.382Z,65.70
2019-04-20T09:28:40.513Z,64.80
2019-04-20T09:31:22.645Z,64.30
2019-04-20T09:34:11.721Z,63.40
2019-04-20T09:36:43.482Z,64.80
2019-04-20T09:39:18.632Z,62.40
2019-04-20T09:42:01.055Z,63.90
2019-04-20T09:44:33.662Z,65.40
2019-04-20T09:47:03.280Z,65.40
2019-04-20T09:49:42.475Z,63.00
2019-04-20T09:52:16.989Z,62.30
2019-04-20T09:54:54.883Z,59.70
2019-04-20T09:57:29.523Z,59.80
2019-04-20T10:00:02.934Z,58.30
2019-04-20T10:02:22.197Z,57.30
2019-04-20T10:04:47.652Z,55.50
2019-04-20T10:07:21.757Z,55.00
2019-04-20T10:09:50.625Z,55.80
2019-04-20T10:12:22.244Z,52.50
2019-04-20T10:14:53.255Z,51.80
2019-04-20T10:17:23.662Z,53.80
2019-04-20T10:19:55.586Z,52.70
2019-04-20T10:22:26.777Z,53.60
2019-04-20T10:24:57.829Z,52.10
2019-04-20T10:27:28.795Z,52.30
2019-04-20T10:30:03.768Z,50.80
2019-04-20T10:32:38.900Z,52.10
2019-04-20T10:35:04.522Z,52.20
2019-04-20T10:37:39.789Z,48.80
2019-04-20T10:40:11.491Z,50.10
2019-04-20T10:42:42.193Z,50.20
2019-04-20T10:45:13.237Z,48.50
2019-04-20T10:47:45.193Z,49.40
2019-04-20T10:50:17.214Z,50.70
2019-04-20T10:52:47.744Z,47.70
2019-04-20T10:55:18.690Z,47.30
2019-04-20T10:57:49.548Z,48.10
2019-04-20T11:00:37.779Z,48.00
2019-04-20T11:03:08.169Z,45.80
2019-04-20T11:05:40.373Z,47.40
2019-04-20T11:08:11.110Z,44.70
2019-04-20T11:10:55.538Z,45.40
2019-04-20T11:13:15.166Z,46.10
2019-04-20T11:15:46.406Z,49.50
2019-04-20T11:18:17.714Z,51.00
2019-04-20T11:20:49.147Z,49.00
2019-04-20T11:23:20.376Z,49.70
2019-04-20T11:25:50.856Z,51.30
2019-04-20T11:28:21.981Z,52.20
2019-04-20T11:30:52.399Z,53.20
2019-04-20T11:33:24.439Z,53.70
2019-04-20T11:35:55.143Z,53.30
2019-04-20T11:38:26.092Z,53.60
2019-04-20T11:41:08.335Z,53.50
2019-04-20T11:43:29.284Z,54.20
2019-04-20T11:46:00.549Z,54.70
2019-04-20T11:48:31.703Z,54.80
2019-04-20T11:51:03.512Z,54.70
2019-04-20T11:53:34.402Z,55.60
2019-04-20T11:56:06.699Z,55.60
2019-04-20T11:58:38.670Z,53.90
2019-04-20T12:01:44.087Z,55.20
2019-04-20T12:04:27.098Z,53.60
2019-04-20T12:06:48.742Z,54.70
2019-04-20T12:09:19.295Z,55.40
2019-04-20T12:12:02.150Z,54.50
2019-04-20T12:14:22.939Z,55.10
2019-04-20T12:16:53.445Z,51.80
2019-04-20T12:19:24.872Z,50.90
2019-04-20T12:21:55.893Z,46.20
2019-04-20T12:24:26.548Z,45.10
2019-04-20T12:26:56.981Z,44.40
2019-04-20T12:29:27.956Z,45.10
2019-04-20T12:32:02.278Z,44.70
2019-04-20T12:34:30.795Z,44.30
2019-04-20T12:37:01.095Z,45.50
2019-04-20T12:39:31.448Z,45.60
2019-04-20T12:42:05.917Z,46.80
2019-04-20T12:44:35.500Z,45.30
2019-04-20T12:47:05.929Z,45.30
2019-04-20T12:49:37.787Z,46.30
2019-04-20T12:52:08.528Z,45.20
2019-04-20T12:54:41.706Z,43.70
2019-04-20T12:57:11.038Z,44.00
2019-04-20T12:59:44.397Z,43.50
2019-04-20T13:02:15.413Z,45.80
2019-04-20T13:04:46.242Z,44.00
2019-04-20T13:07:17.686Z,44.00
2019-04-20T13:09:52.750Z,45.40
2019-04-20T13:12:42.671Z,44.80
2019-04-20T13:15:56.281Z,47.50
2019-04-20T13:18:32.864Z,44.50
2019-04-20T13:21:03.309Z,41.30
2019-04-20T13:23:35.055Z,41.30
2019-04-20T13:26:07.455Z,42.60
2019-04-20T13:28:37.547Z,42.90
2019-04-20T13:31:09.103Z,43.80
2019-04-20T13:33:40.939Z,44.00
2019-04-20T13:36:12.464Z,43.20
2019-04-20T13:38:44.099Z,41.50
2019-04-20T13:41:15.759Z,44.50
2019-04-20T13:43:47.980Z,42.30
2019-04-20T13:46:18.924Z,42.10
2019-04-20T13:48:50.958Z,43.00
2019-04-20T13:51:23.006Z,41.70
2019-04-20T13:53:53.425Z,42.00
2019-04-20T13:56:25.877Z,41.90
2019-04-20T13:59:14.099Z,44.20
2019-04-20T14:02:04.802Z,43.60
2019-04-20T14:04:39.028Z,43.10
2019-04-20T14:07:12.531Z,43.30
2019-04-20T14:09:43.567Z,43.80
2019-04-20T14:12:23.176Z,45.90
2019-04-20T14:14:46.906Z,45.10
2019-04-20T14:17:17.336Z,42.10
2019-04-20T14:19:49.243Z,43.00
2019-04-20T14:22:20.864Z,42.30
2019-04-20T14:24:51.245Z,41.70
2019-04-20T14:27:21.553Z,43.20
2019-04-20T14:29:52.925Z,43.50
2019-04-20T14:32:24.923Z,43.20
2019-04-20T14:34:56.512Z,45.90
2019-04-20T14:37:27.075Z,44.80
2019-04-20T14:39:58.488Z,43.10
2019-04-20T14:42:37.403Z,43.20
2019-04-20T14:45:01.916Z,43.10
2019-04-20T14:47:33.890Z,43.90
2019-04-20T14:50:05.408Z,44.10
2019-04-20T14:52:35.701Z,43.60
2019-04-20T14:55:07.736Z,43.30
2019-04-20T14:57:39.384Z,42.50
2019-04-20T15:00:27.783Z,45.50
2019-04-20T15:03:01.837Z,44.60
2019-04-20T15:05:32.887Z,43.10
2019-04-20T15:08:04.716Z,43.90
2019-04-20T15:10:36.566Z,45.30
2019-04-20T15:13:08.485Z,47.30
2019-04-20T15:15:40.646Z,49.10
2019-04-20T15:18:13.431Z,46.80
2019-04-20T15:20:47.804Z,48.00
2019-04-20T15:23:21.608Z,48.10
2019-04-20T15:25:52.777Z,49.80
2019-04-20T15:28:24.190Z,45.90
2019-04-20T15:30:56.159Z,45.20
2019-04-20T15:33:27.221Z,46.40
2019-04-20T15:35:59.956Z,47.80
2019-04-20T15:38:31.301Z,49.80
2019-04-20T15:41:03.034Z,48.60
2019-04-20T15:43:35.208Z,49.90
2019-04-20T15:46:07.487Z,51.40
2019-04-20T15:48:38.085Z,51.30
2019-04-20T15:51:09.947Z,51.90
2019-04-20T15:53:41.688Z,51.60
2019-04-20T15:56:12.087Z,51.30
2019-04-20T15:58:42.465Z,47.10
2019-04-20T16:01:14.396Z,46.60
2019-04-20T16:03:51.093Z,49.90
2019-04-20T16:06:23.076Z,48.40
2019-04-20T16:08:56.445Z,48.10
2019-04-20T16:11:26.894Z,47.40
2019-04-20T16:13:58.160Z,45.30
2019-04-20T16:16:30.090Z,47.10
2019-04-20T16:19:03.954Z,46.60
2019-04-20T16:21:35.705Z,45.10
2019-04-20T16:24:18.987Z,47.60
2019-04-20T16:27:11.730Z,47.30
2019-04-20T16:29:43.850Z,48.20
2019-04-20T16:32:16.537Z,52.10
2019-04-20T16:34:46.987Z,52.80
2019-04-20T16:37:17.624Z,52.70
2019-04-20T16:39:48.369Z,52.70
2019-04-20T16:42:20.281Z,52.00
2019-04-20T16:44:51.384Z,52.60
2019-04-20T16:47:22.082Z,52.40
2019-04-20T16:49:52.860Z,52.60
2019-04-20T16:52:23.187Z,53.90
2019-04-20T16:54:55.567Z,53.70
2019-04-20T16:57:27.760Z,53.00
2019-04-20T16:59:59.560Z,53.20
2019-04-20T17:02:30.404Z,54.40
2019-04-20T17:05:01.071Z,54.60
2019-04-20T17:07:35.334Z,55.90
2019-04-20T17:10:07.518Z,56.10
2019-04-20T17:12:38.070Z,55.70
2019-04-20T17:15:11.779Z,55.90
2019-04-20T17:17:43.513Z,56.50
2019-04-20T17:20:15.726Z,56.70
2019-04-20T17:22:46.485Z,56.60
2019-04-20T17:25:17.542Z,56.40
2019-04-20T17:27:59.464Z,56.40
2019-04-20T17:30:58.990Z,56.50
2019-04-20T17:33:53.373Z,57.10
2019-04-20T17:36:21.795Z,57.30
2019-04-20T17:38:54.399Z,57.50
2019-04-20T17:41:40.180Z,58.00
2019-04-20T17:44:09.932Z,57.80
2019-04-20T17:46:39.381Z,58.00
2019-04-20T17:49:15.851Z,58.30
2019-04-20T17:51:52.339Z,57.80
2019-04-20T17:54:21.844Z,58.30
2019-04-20T17:56:53.952Z,57.80
2019-04-20T17:59:26.196Z,58.60
2019-04-20T18:02:25.117Z,58.40
2019-04-20T18:05:19.822Z,58.60
2019-04-20T18:07:58.906Z,58.40
2019-04-20T18:10:19.023Z,58.40
2019-04-20T18:12:37.450Z,58.20
2019-04-20T18:15:21.253Z,58.40
2019-04-20T18:17:58.794Z,58.40
2019-04-20T18:20:28.053Z,58.70
2019-04-20T18:22:58.819Z,58.80
2019-04-20T18:25:58.877Z,58.70
2019-04-20T18:28:15.162Z,58.50
2019-04-20T18:30:53.653Z,58.40
2019-04-20T18:33:17.946Z,58.60
2019-04-20T18:35:49.510Z,58.10
2019-04-20T18:38:20.231Z,58.30
2019-04-20T18:40:55.969Z,58.40
2019-04-20T18:43:25.632Z,58.30
2019-04-20T18:46:13.435Z,58.70
2019-04-20T18:48:52.303Z,58.50
2019-04-20T18:50:59.784Z,58.30
2019-04-20T18:53:37.464Z,58.20
2019-04-20T18:56:04.349Z,58.10
2019-04-20T18:58:35.385Z,58.30
2019-04-20T19:01:05.732Z,58.30
2019-04-20T19:03:40.845Z,58.60
2019-04-20T19:06:09.484Z,58.00
2019-04-20T19:08:46.352Z,58.40
2019-04-20T19:11:16.536Z,58.80
2019-04-20T19:13:57.955Z,59.00
2019-04-20T19:16:56.820Z,59.40
2019-04-20T19:19:31.998Z,59.70
2019-04-20T19:21:54.554Z,60.30
2019-04-20T19:24:29.525Z,60.80
2019-04-20T19:27:02.977Z,61.00
2019-04-20T19:29:35.638Z,61.30
2019-04-20T19:32:19.513Z,61.60
2019-04-20T19:34:47.523Z,62.20
2019-04-20T19:37:15.649Z,62.80
2019-04-20T19:39:50.686Z,63.70
2019-04-20T19:42:27.436Z,64.70
2019-04-20T19:45:00.471Z,65.40
2019-04-20T19:47:34.801Z,65.80
2019-04-20T19:50:19.665Z,66.00
2019-04-20T19:52:44.766Z,66.20
2019-04-20T19:55:10.631Z,66.20
2019-04-20T19:57:42.790Z,66.70
2019-04-20T19:59:58.195Z,66.80
2019-04-20T20:02:29.829Z,67.40
2019-04-20T20:05:05.389Z,67.60
2019-04-20T20:07:41.206Z,67.80
2019-04-20T20:10:07.766Z,68.30
2019-04-20T20:12:39.845Z,69.00
2019-04-20T20:15:15.828Z,68.90
2019-04-20T20:17:58.845Z,70.20
2019-04-20T20:20:38.206Z,71.00
2019-04-20T20:22:50.411Z,70.70
2019-04-20T20:25:24.601Z,71.10
2019-04-20T20:27:58.456Z,71.20
2019-04-20T20:30:33.191Z,71.90
2019-04-20T20:33:11.538Z,71.80
2019-04-20T20:35:41.308Z,71.80
2019-04-20T20:38:14.792Z,72.50
2019-04-20T20:40:39.655Z,71.70
2019-04-20T20:43:18.434Z,71.50
2019-04-20T20:45:49.729Z,72.20
2019-04-20T20:48:30.228Z,71.60
2019-04-20T20:51:07.829Z,71.30
2019-04-20T20:53:32.896Z,71.80
2019-04-20T20:56:01.974Z,71.40
2019-04-20T20:58:40.670Z,71.60
2019-04-20T21:01:04.485Z,71.80
2019-04-20T21:03:34.664Z,72.00
2019-04-20T21:06:00.960Z,71.40
2019-04-20T21:08:31.604Z,71.30
2019-04-20T21:11:04.894Z,71.50
2019-04-20T21:13:40.157Z,71.20
2019-04-20T21:16:14.939Z,71.20
2019-04-20T21:18:54.680Z,71.00
2019-04-20T21:21:27.465Z,70.90
2019-04-20T21:23:53.089Z,70.70
2019-04-20T21:26:23.675Z,70.70
2019-04-20T21:28:52.251Z,70.50
2019-04-20T21:31:27.300Z,70.30
2019-04-20T21:33:55.225Z,70.30
2019-04-20T21:36:29.315Z,69.70
2019-04-20T21:38:58.173Z,70.10
2019-04-20T21:41:29.476Z,69.90
2019-04-20T21:44:01.315Z,70.00
2019-04-20T21:46:39.781Z,70.20
2019-04-20T21:49:21.791Z,70.10
2019-04-20T21:51:44.548Z,69.80
2019-04-20T21:54:09.604Z,70.60
2019-04-20T21:56:46.144Z,71.20
2019-04-20T21:59:20.808Z,70.20
2019-04-20T22:01:55.125Z,70.40
2019-04-20T22:04:19.897Z,70.10
2019-04-20T22:06:50.151Z,70.90
2019-04-20T22:09:25.072Z,71.00
2019-04-20T22:11:53.880Z,70.40
2019-04-20T22:14:27.561Z,70.30
2019-04-20T22:16:59.180Z,70.50
2019-04-20T22:19:39.347Z,70.20
2019-04-20T22:22:12.918Z,70.70
2019-04-20T22:24:55.719Z,71.20
2019-04-20T22:27:14.815Z,71.00
2019-04-20T22:29:38.749Z,70.90
2019-04-20T22:32:13.250Z,71.20
2019-04-20T22:34:41.846Z,71.90
2019-04-20T22:37:15.305Z,72.70
2019-04-20T22:39:52.368Z,73.10
2019-04-20T22:42:21.384Z,73.30
2019-04-20T22:44:58.697Z,74.10
2019-04-20T22:47:28.908Z,74.90
2019-04-20T22:50:15.101Z,74.90
2019-04-20T22:52:42.958Z,74.50
2019-04-20T22:55:28.284Z,75.30
2019-04-20T22:57:48.672Z,75.20
2019-04-20T23:00:14.599Z,74.90
2019-04-20T23:02:42.717Z,75.30
2019-04-20T23:05:13.258Z,74.90
2019-04-20T23:07:44.356Z,74.90
2019-04-20T23:10:18.199Z,75.10
2019-04-20T23:12:53.262Z,75.50
2019-04-20T23:15:20.893Z,76.30
2019-04-20T23:17:52.691Z,76.90
2019-04-20T23:20:27.735Z,77.30
2019-04-20T23:22:56.831Z,77.20
2019-04-20T23:25:27.272Z,77.20
2019-04-20T23:28:04.834Z,78.00
2019-04-20T23:30:34.032Z,78.90
2019-04-20T23:33:04.169Z,79.70
2019-04-20T23:35:37.606Z,80.90
2019-04-20T23:38:14.369Z,81.00
2019-04-20T23:40:41.734Z,81.40
2019-04-20T23:43:24.527Z,82.60
2019-04-20T23:46:08.300Z,82.40
2019-04-20T23:48:44.816Z,82.40
2019-04-20T23:51:36.353Z,83.00
2019-04-20T23:53:56.458Z,82.90
2019-04-20T23:56:20.848Z,83.40
2019-04-20T23:58:53.452Z,83.30
